19.7°F
Current conditions from King Hill
Updated every 5 minutes
 
  Wednesday April 16, 2014

Station Historical Data
Daily Summary for July 17, 2011 Units:  Both    English   Metric
« Previous Day
Next Day »
Daily Weekly Monthly Yearly Custom
  High: Low: Average:
Temperature: 86.3 °F /  30.2 °C 61.0 °F /  16.1 °C 74.2 °F /  23.4 °C
Dew Point: 71.1 °F /  21.7 °C 54.8 °F /  12.7 °C 62.1 °F /  16.7 °C
Humidity: 88% 49% 67%
Wind Speed: 12.0mph /  19.3km/h - 2.5mph /  4km/h
Wind Gust: 23.0mph /  37km/h - -
Wind- - WSW
Pressure: 30.02 in /  1016.5 hPa 29.86 in /  1011.1 hPa -
Precipitation: 0.03 in /  0.8 mm    
Historical Graphs
 
 
Tabular Data for July 17, 2011
Time Temperature Dew Point Pressure Wind Wind Speed Wind Gust Humidity Daily Rainfall
00:00 62.1 °F /  16.7 °C 55.5 °F /  13.1 °C 30.02in /  1016.5hPa Calm   1.0mph /  1.6km/h 79% 0.00in /  0mm
00:05 62.1 °F /  16.7 °C 55.9 °F /  13.3 °C 30.02in /  1016.5hPa Calm   1.0mph /  1.6km/h 80% 0.00in /  0mm
00:10 61.8 °F /  16.6 °C 55.6 °F /  13.1 °C 30.02in /  1016.5hPa Calm   1.0mph /  1.6km/h 80% 0.00in /  0mm
00:15 61.6 °F /  16.4 °C 55.4 °F /  13 °C 30.02in /  1016.5hPa Calm   2.0mph /  3.2km/h 80% 0.00in /  0mm
00:20 61.4 °F /  16.3 °C 55.2 °F /  12.9 °C 30.02in /  1016.5hPa Calm   2.0mph /  3.2km/h 80% 0.00in /  0mm
00:25 61.5 °F /  16.4 °C 55.3 °F /  12.9 °C 30.02in /  1016.5hPa Calm   1.0mph /  1.6km/h 80% 0.00in /  0mm
00:30 61.4 °F /  16.3 °C 55.2 °F /  12.9 °C 30.02in /  1016.5hPa Calm   4.0mph /  6.4km/h 80% 0.00in /  0mm
00:35 61.3 °F /  16.3 °C 55.4 °F /  13 °C 30.02in /  1016.5hPa Calm   4.0mph /  6.4km/h 81% 0.00in /  0mm
00:40 61.1 °F /  16.2 °C 55.2 °F /  12.9 °C 30.02in /  1016.5hPa Calm   1.0mph /  1.6km/h 81% 0.00in /  0mm
00:45 61.0 °F /  16.1 °C 54.8 °F /  12.7 °C 30.02in /  1016.5hPa Calm   2.0mph /  3.2km/h 80% 0.00in /  0mm
00:50 61.3 °F /  16.3 °C 55.1 °F /  12.8 °C 30.01in /  1016.1hPa Calm   4.0mph /  6.4km/h 80% 0.00in /  0mm
00:55 61.9 °F /  16.6 °C 55.3 °F /  12.9 °C 30.01in /  1016.1hPa Calm   4.0mph /  6.4km/h 79% 0.00in /  0mm
01:00 62.4 °F /  16.9 °C 55.1 °F /  12.8 °C 30.01in /  1016.1hPa Calm   4.0mph /  6.4km/h 77% 0.00in /  0mm
01:05 62.8 °F /  17.1 °C 55.1 °F /  12.8 °C 30.01in /  1016.1hPa Calm   5.0mph /  8km/h 76% 0.00in /  0mm
01:10 63.0 °F /  17.2 °C 55.3 °F /  12.9 °C 30.01in /  1016.1hPa Calm   5.0mph /  8km/h 76% 0.00in /  0mm
01:15 63.1 °F /  17.3 °C 55.1 °F /  12.8 °C 30.01in /  1016.1hPa Calm   3.0mph /  4.8km/h 75% 0.00in /  0mm
01:20 63.1 °F /  17.3 °C 55.1 °F /  12.8 °C 30.01in /  1016.1hPa SSW 1.0mph /  1.6km/h 3.0mph /  4.8km/h 75% 0.00in /  0mm
01:25 63.0 °F /  17.2 °C 55.0 °F /  12.8 °C 30.01in /  1016.1hPa SSW 1.0mph /  1.6km/h 4.0mph /  6.4km/h 75% 0.00in /  0mm
01:30 63.0 °F /  17.2 °C 55.0 °F /  12.8 °C 30.01in /  1016.1hPa SSW 1.0mph /  1.6km/h 5.0mph /  8km/h 75% 0.00in /  0mm
01:35 63.0 °F /  17.2 °C 55.3 °F /  12.9 °C 30.01in /  1016.1hPa SSW 1.0mph /  1.6km/h 5.0mph /  8km/h 76% 0.00in /  0mm
01:40 62.9 °F /  17.2 °C 55.2 °F /  12.9 °C 30.01in /  1016.1hPa SSW 1.0mph /  1.6km/h 5.0mph /  8km/h 76% 0.00in /  0mm
01:45 62.8 °F /  17.1 °C 55.1 °F /  12.8 °C 30.01in /  1016.1hPa SSW 1.0mph /  1.6km/h 5.0mph /  8km/h 76% 0.00in /  0mm
01:50 62.8 °F /  17.1 °C 55.1 °F /  12.8 °C 30.01in /  1016.1hPa Calm   5.0mph /  8km/h 76% 0.00in /  0mm
01:55 63.0 °F /  17.2 °C 55.3 °F /  12.9 °C 30.01in /  1016.1hPa Calm   5.0mph /  8km/h 76% 0.00in /  0mm
02:00 63.2 °F /  17.3 °C 55.5 °F /  13.1 °C 30.01in /  1016.1hPa Calm   4.0mph /  6.4km/h 76% 0.00in /  0mm
02:05 63.4 °F /  17.4 °C 55.3 °F /  12.9 °C 30.01in /  1016.1hPa SSW 1.0mph /  1.6km/h 4.0mph /  6.4km/h 75% 0.00in /  0mm
02:10 63.6 °F /  17.6 °C 55.5 °F /  13.1 °C 30.01in /  1016.1hPa Calm   4.0mph /  6.4km/h 75% 0.00in /  0mm
02:15 63.5 °F /  17.5 °C 55.4 °F /  13 °C 30.01in /  1016.1hPa Calm   2.0mph /  3.2km/h 75% 0.00in /  0mm
02:20 63.3 °F /  17.4 °C 55.6 °F /  13.1 °C 30.01in /  1016.1hPa Calm   3.0mph /  4.8km/h 76% 0.00in /  0mm
02:25 63.0 °F /  17.2 °C 55.3 °F /  12.9 °C 30.01in /  1016.1hPa Calm   3.0mph /  4.8km/h 76% 0.00in /  0mm
02:30 62.8 °F /  17.1 °C 55.5 °F /  13.1 °C 30.01in /  1016.1hPa Calm   3.0mph /  4.8km/h 77% 0.00in /  0mm
02:35 62.5 °F /  16.9 °C 55.6 °F /  13.1 °C 30.01in /  1016.1hPa Calm   3.0mph /  4.8km/h 78% 0.00in /  0mm
02:40 62.4 °F /  16.9 °C 55.5 °F /  13.1 °C 30.00in /  1015.8hPa Calm   4.0mph /  6.4km/h 78% 0.00in /  0mm
02:45 62.3 °F /  16.8 °C 55.4 °F /  13 °C 30.01in /  1016.1hPa Calm   4.0mph /  6.4km/h 78% 0.00in /  0mm
02:55 61.9 °F /  16.6 °C 55.3 °F /  12.9 °C 30.00in /  1015.8hPa Calm   3.0mph /  4.8km/h 79% 0.00in /  0mm
03:00 61.8 °F /  16.6 °C 55.2 °F /  12.9 °C 30.00in /  1015.8hPa Calm   1.0mph /  1.6km/h 79% 0.00in /  0mm
03:05 61.7 °F /  16.5 °C 55.1 °F /  12.8 °C 30.00in /  1015.8hPa SSW 1.0mph /  1.6km/h 4.0mph /  6.4km/h 79% 0.00in /  0mm
03:10 61.8 °F /  16.6 °C 55.2 °F /  12.9 °C 30.00in /  1015.8hPa Calm   4.0mph /  6.4km/h 79% 0.00in /  0mm
03:15 61.8 °F /  16.6 °C 55.2 °F /  12.9 °C 30.00in /  1015.8hPa SSW 1.0mph /  1.6km/h 3.0mph /  4.8km/h 79% 0.00in /  0mm
03:20 61.7 °F /  16.5 °C 55.1 °F /  12.8 °C 30.00in /  1015.8hPa SSW 1.0mph /  1.6km/h 3.0mph /  4.8km/h 79% 0.00in /  0mm
03:25 61.8 °F /  16.6 °C 55.2 °F /  12.9 °C 30.00in /  1015.8hPa SSW 1.0mph /  1.6km/h 5.0mph /  8km/h 79% 0.00in /  0mm
03:30 62.2 °F /  16.8 °C 55.3 °F /  12.9 °C 30.00in /  1015.8hPa SSW 1.0mph /  1.6km/h 5.0mph /  8km/h 78% 0.00in /  0mm
03:35 62.4 °F /  16.9 °C 55.5 °F /  13.1 °C 30.00in /  1015.8hPa Calm   4.0mph /  6.4km/h 78% 0.00in /  0mm
03:45 62.3 °F /  16.8 °C 55.4 °F /  13 °C 30.00in /  1015.8hPa SSW 1.0mph /  1.6km/h 3.0mph /  4.8km/h 78% 0.00in /  0mm
03:50 62.1 °F /  16.7 °C 55.2 °F /  12.9 °C 30.00in /  1015.8hPa SSW 1.0mph /  1.6km/h 3.0mph /  4.8km/h 78% 0.00in /  0mm
03:55 61.9 °F /  16.6 °C 55.0 °F /  12.8 °C 30.00in /  1015.8hPa SSW 1.0mph /  1.6km/h 4.0mph /  6.4km/h 78% 0.00in /  0mm
04:00 61.8 °F /  16.6 °C 55.2 °F /  12.9 °C 30.00in /  1015.8hPa SSW 1.0mph /  1.6km/h 4.0mph /  6.4km/h 79% 0.00in /  0mm
04:05 61.7 °F /  16.5 °C 55.1 °F /  12.8 °C 30.00in /  1015.8hPa Calm   4.0mph /  6.4km/h 79% 0.00in /  0mm
04:10 61.7 °F /  16.5 °C 55.1 °F /  12.8 °C 30.00in /  1015.8hPa Calm   4.0mph /  6.4km/h 79% 0.00in /  0mm
04:15 61.5 °F /  16.4 °C 54.9 °F /  12.7 °C 30.00in /  1015.8hPa Calm   3.0mph /  4.8km/h 79% 0.00in /  0mm
04:20 61.5 °F /  16.4 °C 55.3 °F /  12.9 °C 30.00in /  1015.8hPa Calm   3.0mph /  4.8km/h 80% 0.00in /  0mm
04:25 61.5 °F /  16.4 °C 55.3 °F /  12.9 °C 30.00in /  1015.8hPa Calm   1.0mph /  1.6km/h 80% 0.00in /  0mm
04:30 61.4 °F /  16.3 °C 55.2 °F /  12.9 °C 30.00in /  1015.8hPa SW 1.0mph /  1.6km/h 4.0mph /  6.4km/h 80% 0.00in /  0mm
04:35 61.3 °F /  16.3 °C 55.1 °F /  12.8 °C 30.00in /  1015.8hPa SW 1.0mph /  1.6km/h 4.0mph /  6.4km/h 80% 0.00in /  0mm
04:40 61.2 °F /  16.2 °C 55.0 °F /  12.8 °C 30.00in /  1015.8hPa Calm   4.0mph /  6.4km/h 80% 0.00in /  0mm
04:45 61.2 °F /  16.2 °C 55.0 °F /  12.8 °C 30.01in /  1016.1hPa Calm   4.0mph /  6.4km/h 80% 0.00in /  0mm
04:50 61.2 °F /  16.2 °C 55.0 °F /  12.8 °C 30.01in /  1016.1hPa Calm   4.0mph /  6.4km/h 80% 0.00in /  0mm
04:55 61.3 °F /  16.3 °C 55.1 °F /  12.8 °C 30.01in /  1016.1hPa SW 1.0mph /  1.6km/h 3.0mph /  4.8km/h 80% 0.00in /  0mm
05:00 61.3 °F /  16.3 °C 55.4 °F /  13 °C 30.01in /  1016.1hPa Calm   4.0mph /  6.4km/h 81% 0.00in /  0mm
05:05 61.3 °F /  16.3 °C 55.1 °F /  12.8 °C 30.00in /  1015.8hPa SSW 1.0mph /  1.6km/h 4.0mph /  6.4km/h 80% 0.00in /  0mm
05:10 61.6 °F /  16.4 °C 55.4 °F /  13 °C 30.00in /  1015.8hPa SW 2.0mph /  3.2km/h 5.0mph /  8km/h 80% 0.00in /  0mm
05:15 61.8 °F /  16.6 °C 55.6 °F /  13.1 °C 30.00in /  1015.8hPa SW 2.0mph /  3.2km/h 6.0mph /  9.7km/h 80% 0.00in /  0mm
05:20 62.1 °F /  16.7 °C 55.5 °F /  13.1 °C 30.01in /  1016.1hPa Calm   6.0mph /  9.7km/h 79% 0.00in /  0mm
05:25 62.4 °F /  16.9 °C 55.8 °F /  13.2 °C 30.01in /  1016.1hPa Calm   5.0mph /  8km/h 79% 0.00in /  0mm
05:30 62.5 °F /  16.9 °C 55.9 °F /  13.3 °C 30.01in /  1016.1hPa SSW 2.0mph /  3.2km/h 6.0mph /  9.7km/h 79% 0.00in /  0mm
05:35 62.7 °F /  17.1 °C 55.7 °F /  13.2 °C 30.01in /  1016.1hPa Calm   6.0mph /  9.7km/h 78% 0.00in /  0mm
05:40 62.7 °F /  17.1 °C 56.1 °F /  13.4 °C 30.01in /  1016.1hPa Calm   6.0mph /  9.7km/h 79% 0.00in /  0mm
05:45 62.7 °F /  17.1 °C 56.1 °F /  13.4 °C 30.00in /  1015.8hPa SW 1.0mph /  1.6km/h 5.0mph /  8km/h 79% 0.00in /  0mm
05:50 62.9 °F /  17.2 °C 55.9 °F /  13.3 °C 30.00in /  1015.8hPa SW 1.0mph /  1.6km/h 6.0mph /  9.7km/h 78% 0.00in /  0mm
05:55 63.3 °F /  17.4 °C 56.3 °F /  13.5 °C 30.00in /  1015.8hPa SW 2.0mph /  3.2km/h 6.0mph /  9.7km/h 78% 0.00in /  0mm
06:00 63.7 °F /  17.6 °C 56.4 °F /  13.6 °C 30.00in /  1015.8hPa SSW 1.0mph /  1.6km/h 6.0mph /  9.7km/h 77% 0.00in /  0mm
06:05 64.0 °F /  17.8 °C 56.7 °F /  13.7 °C 30.00in /  1015.8hPa Calm   6.0mph /  9.7km/h 77% 0.00in /  0mm
06:10 64.2 °F /  17.9 °C 56.8 °F /  13.8 °C 30.00in /  1015.8hPa SSW 1.0mph /  1.6km/h 6.0mph /  9.7km/h 77% 0.00in /  0mm
06:15 64.3 °F /  17.9 °C 56.6 °F /  13.7 °C 30.01in /  1016.1hPa Calm   6.0mph /  9.7km/h 76% 0.00in /  0mm
06:20 64.4 °F /  18 °C 56.7 °F /  13.7 °C 30.00in /  1015.8hPa SW 2.0mph /  3.2km/h 7.0mph /  11.3km/h 76% 0.00in /  0mm
06:25 64.5 °F /  18.1 °C 56.8 °F /  13.8 °C 30.01in /  1016.1hPa SW 1.0mph /  1.6km/h 7.0mph /  11.3km/h 76% 0.00in /  0mm
06:30 64.5 °F /  18.1 °C 56.8 °F /  13.8 °C 30.01in /  1016.1hPa Calm   6.0mph /  9.7km/h 76% 0.00in /  0mm
06:35 64.6 °F /  18.1 °C 56.9 °F /  13.8 °C 30.01in /  1016.1hPa SW 1.0mph /  1.6km/h 5.0mph /  8km/h 76% 0.00in /  0mm
06:40 64.7 °F /  18.2 °C 57.0 °F /  13.9 °C 30.01in /  1016.1hPa Calm   5.0mph /  8km/h 76% 0.00in /  0mm
06:45 64.9 °F /  18.3 °C 57.2 °F /  14 °C 30.01in /  1016.1hPa SW 1.0mph /  1.6km/h 6.0mph /  9.7km/h 76% 0.00in /  0mm
06:50 65.2 °F /  18.4 °C 57.1 °F /  13.9 °C 30.01in /  1016.1hPa SSW 2.0mph /  3.2km/h 6.0mph /  9.7km/h 75% 0.00in /  0mm
06:55 65.4 °F /  18.6 °C 57.3 °F /  14.1 °C 30.01in /  1016.1hPa SSW 3.0mph /  4.8km/h 8.0mph /  12.9km/h 75% 0.00in /  0mm
07:00 65.7 °F /  18.7 °C 57.6 °F /  14.2 °C 30.01in /  1016.1hPa Calm   8.0mph /  12.9km/h 75% 0.00in /  0mm
07:05 66.0 °F /  18.9 °C 57.5 °F /  14.2 °C 30.01in /  1016.1hPa SSW 1.0mph /  1.6km/h 9.0mph /  14.5km/h 74% 0.00in /  0mm
07:10 66.3 °F /  19.1 °C 57.8 °F /  14.3 °C 30.01in /  1016.1hPa SW 1.0mph /  1.6km/h 9.0mph /  14.5km/h 74% 0.00in /  0mm
07:15 66.7 °F /  19.3 °C 58.2 °F /  14.6 °C 30.01in /  1016.1hPa SW 2.0mph /  3.2km/h 8.0mph /  12.9km/h 74% 0.00in /  0mm
07:20 67.0 °F /  19.4 °C 58.1 °F /  14.5 °C 30.01in /  1016.1hPa SSW 2.0mph /  3.2km/h 8.0mph /  12.9km/h 73% 0.00in /  0mm
07:25 67.4 °F /  19.7 °C 58.5 °F /  14.7 °C 30.01in /  1016.1hPa SSW 4.0mph /  6.4km/h 8.0mph /  12.9km/h 73% 0.00in /  0mm
07:30 67.6 °F /  19.8 °C 58.6 °F /  14.8 °C 30.01in /  1016.1hPa SW 4.0mph /  6.4km/h 10.0mph /  16.1km/h 73% 0.00in /  0mm
07:35 67.8 °F /  19.9 °C 58.8 °F /  14.9 °C 30.01in /  1016.1hPa SW 3.0mph /  4.8km/h 10.0mph /  16.1km/h 73% 0.00in /  0mm
07:45 68.4 °F /  20.2 °C 59.4 °F /  15.2 °C 30.01in /  1016.1hPa SW 2.0mph /  3.2km/h 8.0mph /  12.9km/h 73% 0.00in /  0mm
07:50 68.7 °F /  20.4 °C 59.7 °F /  15.4 °C 30.01in /  1016.1hPa SSW 1.0mph /  1.6km/h 7.0mph /  11.3km/h 73% 0.00in /  0mm
07:55 69.3 °F /  20.7 °C 59.9 °F /  15.5 °C 30.01in /  1016.1hPa SW 2.0mph /  3.2km/h 8.0mph /  12.9km/h 72% 0.00in /  0mm
08:00 69.8 °F /  21 °C 60.4 °F /  15.8 °C 30.01in /  1016.1hPa SSW 1.0mph /  1.6km/h 9.0mph /  14.5km/h 72% 0.00in /  0mm
08:05 70.3 °F /  21.3 °C 60.9 °F /  16.1 °C 30.01in /  1016.1hPa SW 2.0mph /  3.2km/h 9.0mph /  14.5km/h 72% 0.00in /  0mm
08:10 70.7 °F /  21.5 °C 60.4 °F /  15.8 °C 30.01in /  1016.1hPa SW 6.0mph /  9.7km/h 12.0mph /  19.3km/h 70% 0.00in /  0mm
08:15 71.1 °F /  21.7 °C 61.2 °F /  16.2 °C 30.01in /  1016.1hPa SW 2.0mph /  3.2km/h 12.0mph /  19.3km/h 71% 0.00in /  0mm
08:20 71.3 °F /  21.8 °C 61.8 °F /  16.6 °C 30.01in /  1016.1hPa Calm   7.0mph /  11.3km/h 72% 0.00in /  0mm
08:30 71.4 °F /  21.9 °C 61.5 °F /  16.4 °C 30.01in /  1016.1hPa SW 3.0mph /  4.8km/h 11.0mph /  17.7km/h 71% 0.00in /  0mm
08:35 71.3 °F /  21.8 °C 61.0 °F /  16.1 °C 30.01in /  1016.1hPa SW 5.0mph /  8km/h 11.0mph /  17.7km/h 70% 0.00in /  0mm
08:40 71.6 °F /  22 °C 61.7 °F /  16.5 °C 30.01in /  1016.1hPa SW 4.0mph /  6.4km/h 12.0mph /  19.3km/h 71% 0.00in /  0mm
08:45 72.3 °F /  22.4 °C 62.8 °F /  17.1 °C 30.01in /  1016.1hPa SW 1.0mph /  1.6km/h 12.0mph /  19.3km/h 72% 0.00in /  0mm
08:50 72.8 °F /  22.7 °C 62.0 °F /  16.7 °C 30.01in /  1016.1hPa SSW 4.0mph /  6.4km/h 9.0mph /  14.5km/h 69% 0.00in /  0mm
08:55 73.0 °F /  22.8 °C 63.1 °F /  17.3 °C 30.01in /  1016.1hPa SSW 2.0mph /  3.2km/h 10.0mph /  16.1km/h 71% 0.00in /  0mm
09:00 73.4 °F /  23 °C 63.4 °F /  17.4 °C 30.01in /  1016.1hPa SW 3.0mph /  4.8km/h 10.0mph /  16.1km/h 71% 0.00in /  0mm
09:05 73.8 °F /  23.2 °C 63.0 °F /  17.2 °C 30.01in /  1016.1hPa SSW 2.0mph /  3.2km/h 9.0mph /  14.5km/h 69% 0.00in /  0mm
09:10 74.2 °F /  23.4 °C 63.4 °F /  17.4 °C 30.01in /  1016.1hPa SW 1.0mph /  1.6km/h 9.0mph /  14.5km/h 69% 0.00in /  0mm
09:15 74.8 °F /  23.8 °C 64.0 °F /  17.8 °C 30.00in /  1015.8hPa SSW 1.0mph /  1.6km/h 9.0mph /  14.5km/h 69% 0.00in /  0mm
09:20 75.1 °F /  23.9 °C 63.8 °F /  17.7 °C 30.00in /  1015.8hPa South 1.0mph /  1.6km/h 8.0mph /  12.9km/h 68% 0.00in /  0mm
09:25 75.2 °F /  24 °C 63.5 °F /  17.5 °C 30.00in /  1015.8hPa SSW 2.0mph /  3.2km/h 11.0mph /  17.7km/h 67% 0.00in /  0mm
09:30 75.1 °F /  23.9 °C 63.0 °F /  17.2 °C 30.00in /  1015.8hPa SSW 3.0mph /  4.8km/h 11.0mph /  17.7km/h 66% 0.00in /  0mm
09:35 74.8 °F /  23.8 °C 62.7 °F /  17.1 °C 29.99in /  1015.5hPa SSW 1.0mph /  1.6km/h 11.0mph /  17.7km/h 66% 0.00in /  0mm
09:40 74.9 °F /  23.8 °C 63.6 °F /  17.6 °C 29.99in /  1015.5hPa SW 1.0mph /  1.6km/h 9.0mph /  14.5km/h 68% 0.00in /  0mm
09:45 75.5 °F /  24.2 °C 64.2 °F /  17.9 °C 29.99in /  1015.5hPa SSW 2.0mph /  3.2km/h 10.0mph /  16.1km/h 68% 0.00in /  0mm
09:50 76.3 °F /  24.6 °C 65.0 °F /  18.3 °C 29.99in /  1015.5hPa SSW 2.0mph /  3.2km/h 10.0mph /  16.1km/h 68% 0.00in /  0mm
09:55 76.6 °F /  24.8 °C 64.4 °F /  18 °C 29.99in /  1015.5hPa SSW 3.0mph /  4.8km/h 10.0mph /  16.1km/h 66% 0.00in /  0mm
10:00 77.3 °F /  25.2 °C 65.9 °F /  18.8 °C 29.99in /  1015.5hPa SW 1.0mph /  1.6km/h 10.0mph /  16.1km/h 68% 0.00in /  0mm
10:05 77.7 °F /  25.4 °C 65.4 °F /  18.6 °C 29.99in /  1015.5hPa SW 2.0mph /  3.2km/h 8.0mph /  12.9km/h 66% 0.00in /  0mm
10:10 77.8 °F /  25.4 °C 65.5 °F /  18.6 °C 29.99in /  1015.5hPa SW 3.0mph /  4.8km/h 9.0mph /  14.5km/h 66% 0.00in /  0mm
10:15 78.2 °F /  25.7 °C 66.4 °F /  19.1 °C 29.99in /  1015.5hPa SW 2.0mph /  3.2km/h 9.0mph /  14.5km/h 67% 0.00in /  0mm
10:20 78.7 °F /  25.9 °C 66.8 °F /  19.3 °C 29.99in /  1015.5hPa Calm   11.0mph /  17.7km/h 67% 0.00in /  0mm
10:25 78.9 °F /  26.1 °C 64.8 °F /  18.2 °C 29.99in /  1015.5hPa SW 2.0mph /  3.2km/h 11.0mph /  17.7km/h 62% 0.00in /  0mm
10:35 79.2 °F /  26.2 °C 65.1 °F /  18.4 °C 29.99in /  1015.5hPa SSW 1.0mph /  1.6km/h 12.0mph /  19.3km/h 62% 0.00in /  0mm
10:40 79.5 °F /  26.4 °C 66.7 °F /  19.3 °C 29.98in /  1015.1hPa SSW 2.0mph /  3.2km/h 12.0mph /  19.3km/h 65% 0.00in /  0mm
10:45 80.1 °F /  26.7 °C 66.8 °F /  19.3 °C 29.98in /  1015.1hPa Calm   9.0mph /  14.5km/h 64% 0.00in /  0mm
10:50 80.5 °F /  26.9 °C 66.3 °F /  19.1 °C 29.98in /  1015.1hPa WSW 1.0mph /  1.6km/h 8.0mph /  12.9km/h 62% 0.00in /  0mm
10:55 80.8 °F /  27.1 °C 66.1 °F /  18.9 °C 29.98in /  1015.1hPa SSW 1.0mph /  1.6km/h 8.0mph /  12.9km/h 61% 0.00in /  0mm
11:00 80.7 °F /  27.1 °C 65.5 °F /  18.6 °C 29.98in /  1015.1hPa WSW 4.0mph /  6.4km/h 9.0mph /  14.5km/h 60% 0.00in /  0mm
11:05 80.3 °F /  26.8 °C 63.7 °F /  17.6 °C 29.98in /  1015.1hPa SW 4.0mph /  6.4km/h 9.0mph /  14.5km/h 57% 0.00in /  0mm
11:10 80.3 °F /  26.8 °C 63.7 °F /  17.6 °C 29.98in /  1015.1hPa SSW 2.0mph /  3.2km/h 8.0mph /  12.9km/h 57% 0.00in /  0mm
11:15 80.6 °F /  27 °C 64.5 °F /  18.1 °C 29.98in /  1015.1hPa WSW 4.0mph /  6.4km/h 9.0mph /  14.5km/h 58% 0.00in /  0mm
11:20 80.7 °F /  27.1 °C 66.0 °F /  18.9 °C 29.98in /  1015.1hPa SW 3.0mph /  4.8km/h 11.0mph /  17.7km/h 61% 0.00in /  0mm
11:25 80.9 °F /  27.2 °C 66.2 °F /  19 °C 29.99in /  1015.5hPa WSW 3.0mph /  4.8km/h 11.0mph /  17.7km/h 61% 0.00in /  0mm
11:30 81.2 °F /  27.3 °C 64.5 °F /  18.1 °C 29.98in /  1015.1hPa West 3.0mph /  4.8km/h 10.0mph /  16.1km/h 57% 0.00in /  0mm
11:35 81.4 °F /  27.4 °C 65.7 °F /  18.7 °C 29.98in /  1015.1hPa West 4.0mph /  6.4km/h 10.0mph /  16.1km/h 59% 0.00in /  0mm
11:40 81.6 °F /  27.6 °C 65.4 °F /  18.6 °C 29.98in /  1015.1hPa West 3.0mph /  4.8km/h 11.0mph /  17.7km/h 58% 0.00in /  0mm
11:45 81.5 °F /  27.5 °C 66.3 °F /  19.1 °C 29.98in /  1015.1hPa SW 2.0mph /  3.2km/h 11.0mph /  17.7km/h 60% 0.00in /  0mm
11:50 81.4 °F /  27.4 °C 66.7 °F /  19.3 °C 29.98in /  1015.1hPa SW 2.0mph /  3.2km/h 11.0mph /  17.7km/h 61% 0.00in /  0mm
11:55 81.5 °F /  27.5 °C 66.3 °F /  19.1 °C 29.98in /  1015.1hPa SW 2.0mph /  3.2km/h 11.0mph /  17.7km/h 60% 0.00in /  0mm
12:00 81.7 °F /  27.6 °C 67.4 °F /  19.7 °C 29.98in /  1015.1hPa Calm   11.0mph /  17.7km/h 62% 0.00in /  0mm
12:05 82.0 °F /  27.8 °C 65.3 °F /  18.5 °C 29.97in /  1014.8hPa SW 7.0mph /  11.3km/h 12.0mph /  19.3km/h 57% 0.00in /  0mm
12:10 82.1 °F /  27.8 °C 66.4 °F /  19.1 °C 29.97in /  1014.8hPa SW 3.0mph /  4.8km/h 12.0mph /  19.3km/h 59% 0.00in /  0mm
12:15 82.3 °F /  27.9 °C 67.0 °F /  19.4 °C 29.97in /  1014.8hPa WSW 5.0mph /  8km/h 10.0mph /  16.1km/h 60% 0.00in /  0mm
12:20 82.8 °F /  28.2 °C 69.4 °F /  20.8 °C 29.97in /  1014.8hPa West 2.0mph /  3.2km/h 10.0mph /  16.1km/h 64% 0.00in /  0mm
12:25 83.2 °F /  28.4 °C 67.4 °F /  19.7 °C 29.97in /  1014.8hPa West 3.0mph /  4.8km/h 10.0mph /  16.1km/h 59% 0.00in /  0mm
12:30 83.2 °F /  28.4 °C 66.9 °F /  19.4 °C 29.97in /  1014.8hPa West 4.0mph /  6.4km/h 10.0mph /  16.1km/h 58% 0.00in /  0mm
12:35 82.9 °F /  28.3 °C 64.6 °F /  18.1 °C 29.97in /  1014.8hPa WSW 2.0mph /  3.2km/h 11.0mph /  17.7km/h 54% 0.00in /  0mm
12:40 82.1 °F /  27.8 °C 65.9 °F /  18.8 °C 29.97in /  1014.8hPa West 4.0mph /  6.4km/h 11.0mph /  17.7km/h 58% 0.00in /  0mm
12:45 81.8 °F /  27.7 °C 66.1 °F /  18.9 °C 29.97in /  1014.8hPa WSW 2.0mph /  3.2km/h 10.0mph /  16.1km/h 59% 0.00in /  0mm
12:50 81.6 °F /  27.6 °C 67.8 °F /  19.9 °C 29.96in /  1014.4hPa SW 2.0mph /  3.2km/h 9.0mph /  14.5km/h 63% 0.00in /  0mm
12:55 82.1 °F /  27.8 °C 69.2 °F /  20.7 °C 29.96in /  1014.4hPa WSW 3.0mph /  4.8km/h 9.0mph /  14.5km/h 65% 0.00in /  0mm
13:00 82.5 °F /  28.1 °C 66.3 °F /  19.1 °C 29.96in /  1014.4hPa SW 2.0mph /  3.2km/h 9.0mph /  14.5km/h 58% 0.00in /  0mm
13:05 82.9 °F /  28.3 °C 66.6 °F /  19.2 °C 29.96in /  1014.4hPa WSW 3.0mph /  4.8km/h 11.0mph /  17.7km/h 58% 0.00in /  0mm
13:10 83.6 °F /  28.7 °C 69.7 °F /  20.9 °C 29.96in /  1014.4hPa West 1.0mph /  1.6km/h 11.0mph /  17.7km/h 63% 0.00in /  0mm
13:15 83.6 °F /  28.7 °C 66.3 °F /  19.1 °C 29.96in /  1014.4hPa SW 4.0mph /  6.4km/h 10.0mph /  16.1km/h 56% 0.00in /  0mm
13:20 83.8 °F /  28.8 °C 67.0 °F /  19.4 °C 29.96in /  1014.4hPa SW 3.0mph /  4.8km/h 10.0mph /  16.1km/h 57% 0.00in /  0mm
13:25 83.6 °F /  28.7 °C 66.8 °F /  19.3 °C 29.96in /  1014.4hPa SW 3.0mph /  4.8km/h 8.0mph /  12.9km/h 57% 0.00in /  0mm
13:30 83.2 °F /  28.4 °C 67.9 °F /  19.9 °C 29.96in /  1014.4hPa WSW 3.0mph /  4.8km/h 8.0mph /  12.9km/h 60% 0.00in /  0mm
13:35 82.9 °F /  28.3 °C 66.6 °F /  19.2 °C 29.96in /  1014.4hPa SSW 4.0mph /  6.4km/h 11.0mph /  17.7km/h 58% 0.00in /  0mm
13:40 82.8 °F /  28.2 °C 66.5 °F /  19.2 °C 29.95in /  1014.1hPa WSW 4.0mph /  6.4km/h 11.0mph /  17.7km/h 58% 0.00in /  0mm
13:45 82.4 °F /  28 °C 67.1 °F /  19.5 °C 29.96in /  1014.4hPa West 2.0mph /  3.2km/h 11.0mph /  17.7km/h 60% 0.00in /  0mm
13:50 82.7 °F /  28.2 °C 67.4 °F /  19.7 °C 29.95in /  1014.1hPa WSW 2.0mph /  3.2km/h 10.0mph /  16.1km/h 60% 0.00in /  0mm
13:55 83.6 °F /  28.7 °C 68.7 °F /  20.4 °C 29.95in /  1014.1hPa SSW 1.0mph /  1.6km/h 10.0mph /  16.1km/h 61% 0.00in /  0mm
14:00 84.0 °F /  28.9 °C 67.7 °F /  19.8 °C 29.95in /  1014.1hPa WSW 2.0mph /  3.2km/h 11.0mph /  17.7km/h 58% 0.00in /  0mm
14:05 84.0 °F /  28.9 °C 68.6 °F /  20.3 °C 29.94in /  1013.8hPa SW 2.0mph /  3.2km/h 11.0mph /  17.7km/h 60% 0.00in /  0mm
14:10 84.6 °F /  29.2 °C 71.1 °F /  21.7 °C 29.94in /  1013.8hPa SW 2.0mph /  3.2km/h 10.0mph /  16.1km/h 64% 0.00in /  0mm
14:15 85.2 °F /  29.6 °C 68.8 °F /  20.4 °C 29.94in /  1013.8hPa WNW 2.0mph /  3.2km/h 10.0mph /  16.1km/h 58% 0.00in /  0mm
14:20 85.6 °F /  29.8 °C 68.6 °F /  20.3 °C 29.93in /  1013.4hPa SW 4.0mph /  6.4km/h 9.0mph /  14.5km/h 57% 0.00in /  0mm
14:25 85.7 °F /  29.8 °C 66.1 °F /  18.9 °C 29.94in /  1013.8hPa West 8.0mph /  12.9km/h 17.0mph /  27.4km/h 52% 0.00in /  0mm
14:30 85.7 °F /  29.8 °C 70.7 °F /  21.5 °C 29.94in /  1013.8hPa NW 3.0mph /  4.8km/h 17.0mph /  27.4km/h 61% 0.00in /  0mm
14:35 85.8 °F /  29.9 °C 65.6 °F /  18.7 °C 29.93in /  1013.4hPa West 3.0mph /  4.8km/h 16.0mph /  25.7km/h 51% 0.00in /  0mm
14:40 86.0 °F /  30 °C 67.4 °F /  19.7 °C 29.93in /  1013.4hPa West 3.0mph /  4.8km/h 10.0mph /  16.1km/h 54% 0.00in /  0mm
14:45 86.2 °F /  30.1 °C 67.1 °F /  19.5 °C 29.93in /  1013.4hPa West 2.0mph /  3.2km/h 10.0mph /  16.1km/h 53% 0.00in /  0mm
14:50 85.9 °F /  29.9 °C 66.8 °F /  19.3 °C 29.93in /  1013.4hPa WSW 3.0mph /  4.8km/h 11.0mph /  17.7km/h 53% 0.00in /  0mm
14:55 85.5 °F /  29.7 °C 66.4 °F /  19.1 °C 29.93in /  1013.4hPa WSW 3.0mph /  4.8km/h 12.0mph /  19.3km/h 53% 0.00in /  0mm
15:00 85.0 °F /  29.4 °C 67.0 °F /  19.4 °C 29.93in /  1013.4hPa WSW 2.0mph /  3.2km/h 12.0mph /  19.3km/h 55% 0.00in /  0mm
15:05 85.5 °F /  29.7 °C 69.1 °F /  20.6 °C 29.93in /  1013.4hPa WNW 2.0mph /  3.2km/h 11.0mph /  17.7km/h 58% 0.00in /  0mm
15:15 85.7 °F /  29.8 °C 64.4 °F /  18 °C 29.93in /  1013.4hPa WSW 2.0mph /  3.2km/h 10.0mph /  16.1km/h 49% 0.00in /  0mm
15:20 85.8 °F /  29.9 °C 65.6 °F /  18.7 °C 29.93in /  1013.4hPa West 1.0mph /  1.6km/h 10.0mph /  16.1km/h 51% 0.00in /  0mm
15:30 84.9 °F /  29.4 °C 63.6 °F /  17.6 °C 29.92in /  1013.1hPa West 3.0mph /  4.8km/h 8.0mph /  12.9km/h 49% 0.00in /  0mm
15:35 84.5 °F /  29.2 °C 65.5 °F /  18.6 °C 29.92in /  1013.1hPa West 1.0mph /  1.6km/h 10.0mph /  16.1km/h 53% 0.00in /  0mm
15:40 84.1 °F /  28.9 °C 64.6 °F /  18.1 °C 29.91in /  1012.8hPa WSW 1.0mph /  1.6km/h 10.0mph /  16.1km/h 52% 0.00in /  0mm
15:45 84.1 °F /  28.9 °C 64.0 °F /  17.8 °C 29.91in /  1012.8hPa West 3.0mph /  4.8km/h 10.0mph /  16.1km/h 51% 0.00in /  0mm
15:50 84.9 °F /  29.4 °C 65.9 °F /  18.8 °C 29.91in /  1012.8hPa NW 2.0mph /  3.2km/h 10.0mph /  16.1km/h 53% 0.00in /  0mm
15:55 85.1 °F /  29.5 °C 64.4 °F /  18 °C 29.91in /  1012.8hPa West 2.0mph /  3.2km/h 9.0mph /  14.5km/h 50% 0.00in /  0mm
16:00 85.3 °F /  29.6 °C 65.7 °F /  18.7 °C 29.91in /  1012.8hPa WNW 2.0mph /  3.2km/h 9.0mph /  14.5km/h 52% 0.00in /  0mm
16:05 85.6 °F /  29.8 °C 66.5 °F /  19.2 °C 29.91in /  1012.8hPa SW 2.0mph /  3.2km/h 13.0mph /  20.9km/h 53% 0.00in /  0mm
16:10 86.0 °F /  30 °C 67.4 °F /  19.7 °C 29.91in /  1012.8hPa WSW 1.0mph /  1.6km/h 13.0mph /  20.9km/h 54% 0.00in /  0mm
16:15 86.3 °F /  30.2 °C 67.7 °F /  19.8 °C 29.90in /  1012.4hPa West 2.0mph /  3.2km/h 10.0mph /  16.1km/h 54% 0.00in /  0mm
16:25 86.1 °F /  30.1 °C 65.3 °F /  18.5 °C 29.90in /  1012.4hPa West 3.0mph /  4.8km/h 12.0mph /  19.3km/h 50% 0.00in /  0mm
16:30 86.1 °F /  30.1 °C 65.9 °F /  18.8 °C 29.90in /  1012.4hPa WSW 3.0mph /  4.8km/h 12.0mph /  19.3km/h 51% 0.00in /  0mm
16:35 85.8 °F /  29.9 °C 64.5 °F /  18.1 °C 29.90in /  1012.4hPa WSW 3.0mph /  4.8km/h 10.0mph /  16.1km/h 49% 0.00in /  0mm
16:40 85.4 °F /  29.7 °C 65.2 °F /  18.4 °C 29.89in /  1012.1hPa SW 3.0mph /  4.8km/h 10.0mph /  16.1km/h 51% 0.00in /  0mm
16:45 85.0 °F /  29.4 °C 64.3 °F /  17.9 °C 29.89in /  1012.1hPa SW 1.0mph /  1.6km/h 10.0mph /  16.1km/h 50% 0.00in /  0mm
16:50 85.1 °F /  29.5 °C 65.5 °F /  18.6 °C 29.89in /  1012.1hPa West 2.0mph /  3.2km/h 8.0mph /  12.9km/h 52% 0.00in /  0mm
16:55 84.7 °F /  29.3 °C 64.0 °F /  17.8 °C 29.89in /  1012.1hPa WSW 4.0mph /  6.4km/h 9.0mph /  14.5km/h 50% 0.00in /  0mm
17:00 84.1 °F /  28.9 °C 64.6 °F /  18.1 °C 29.89in /  1012.1hPa SSW 1.0mph /  1.6km/h 9.0mph /  14.5km/h 52% 0.00in /  0mm
17:05 83.9 °F /  28.8 °C 65.0 °F /  18.3 °C 29.88in /  1011.7hPa SW 1.0mph /  1.6km/h 6.0mph /  9.7km/h 53% 0.00in /  0mm
17:10 84.2 °F /  29 °C 67.3 °F /  19.6 °C 29.88in /  1011.7hPa SW 1.0mph /  1.6km/h 5.0mph /  8km/h 57% 0.00in /  0mm
17:15 84.7 °F /  29.3 °C 67.3 °F /  19.6 °C 29.88in /  1011.7hPa WSW 1.0mph /  1.6km/h 5.0mph /  8km/h 56% 0.00in /  0mm
17:20 84.8 °F /  29.3 °C 67.4 °F /  19.7 °C 29.88in /  1011.7hPa SW 1.0mph /  1.6km/h 5.0mph /  8km/h 56% 0.00in /  0mm
17:25 85.3 °F /  29.6 °C 65.1 °F /  18.4 °C 29.88in /  1011.7hPa WSW 2.0mph /  3.2km/h 7.0mph /  11.3km/h 51% 0.00in /  0mm
17:30 85.6 °F /  29.8 °C 67.6 °F /  19.8 °C 29.88in /  1011.7hPa WNW 1.0mph /  1.6km/h 8.0mph /  12.9km/h 55% 0.00in /  0mm
17:35 85.7 °F /  29.8 °C 66.6 °F /  19.2 °C 29.87in /  1011.4hPa West 2.0mph /  3.2km/h 8.0mph /  12.9km/h 53% 0.00in /  0mm
17:40 85.6 °F /  29.8 °C 68.6 °F /  20.3 °C 29.87in /  1011.4hPa Calm   8.0mph /  12.9km/h 57% 0.00in /  0mm
17:45 85.2 °F /  29.6 °C 67.2 °F /  19.6 °C 29.87in /  1011.4hPa WSW 2.0mph /  3.2km/h 7.0mph /  11.3km/h 55% 0.00in /  0mm
17:50 85.1 °F /  29.5 °C 66.1 °F /  18.9 °C 29.87in /  1011.4hPa West 2.0mph /  3.2km/h 8.0mph /  12.9km/h 53% 0.00in /  0mm
17:55 84.8 °F /  29.3 °C 66.9 °F /  19.4 °C 29.87in /  1011.4hPa WSW 3.0mph /  4.8km/h 13.0mph /  20.9km/h 55% 0.00in /  0mm
18:00 84.6 °F /  29.2 °C 66.7 °F /  19.3 °C 29.87in /  1011.4hPa WSW 2.0mph /  3.2km/h 13.0mph /  20.9km/h 55% 0.00in /  0mm
18:05 84.8 °F /  29.3 °C 66.3 °F /  19.1 °C 29.87in /  1011.4hPa West 2.0mph /  3.2km/h 9.0mph /  14.5km/h 54% 0.00in /  0mm
18:10 84.9 °F /  29.4 °C 66.4 °F /  19.1 °C 29.87in /  1011.4hPa West 2.0mph /  3.2km/h 8.0mph /  12.9km/h 54% 0.00in /  0mm
18:15 84.8 °F /  29.3 °C 66.9 °F /  19.4 °C 29.87in /  1011.4hPa West 3.0mph /  4.8km/h 10.0mph /  16.1km/h 55% 0.00in /  0mm
18:20 84.7 °F /  29.3 °C 66.2 °F /  19 °C 29.87in /  1011.4hPa WSW 3.0mph /  4.8km/h 10.0mph /  16.1km/h 54% 0.00in /  0mm
18:25 84.6 °F /  29.2 °C 66.7 °F /  19.3 °C 29.87in /  1011.4hPa WNW 1.0mph /  1.6km/h 9.0mph /  14.5km/h 55% 0.00in /  0mm
18:30 84.5 °F /  29.2 °C 67.1 °F /  19.5 °C 29.87in /  1011.4hPa WSW 1.0mph /  1.6km/h 9.0mph /  14.5km/h 56% 0.00in /  0mm
18:35 84.1 °F /  28.9 °C 67.2 °F /  19.6 °C 29.87in /  1011.4hPa Calm   6.0mph /  9.7km/h 57% 0.00in /  0mm
18:40 83.9 °F /  28.8 °C 67.1 °F /  19.5 °C 29.87in /  1011.4hPa Calm   5.0mph /  8km/h 57% 0.00in /  0mm
18:45 84.1 °F /  28.9 °C 67.2 °F /  19.6 °C 29.87in /  1011.4hPa Calm   5.0mph /  8km/h 57% 0.00in /  0mm
18:50 83.8 °F /  28.8 °C 67.0 °F /  19.4 °C 29.87in /  1011.4hPa WSW 1.0mph /  1.6km/h 6.0mph /  9.7km/h 57% 0.00in /  0mm
19:00 83.0 °F /  28.3 °C 67.7 °F /  19.8 °C 29.87in /  1011.4hPa WSW 1.0mph /  1.6km/h 6.0mph /  9.7km/h 60% 0.00in /  0mm
19:05 82.3 °F /  27.9 °C 67.5 °F /  19.7 °C 29.88in /  1011.7hPa Calm   6.0mph /  9.7km/h 61% 0.00in /  0mm
19:10 81.7 °F /  27.6 °C 67.9 °F /  19.9 °C 29.88in /  1011.7hPa Calm   5.0mph /  8km/h 63% 0.00in /  0mm
19:15 81.3 °F /  27.4 °C 67.1 °F /  19.5 °C 29.88in /  1011.7hPa Calm   5.0mph /  8km/h 62% 0.00in /  0mm
19:20 81.0 °F /  27.2 °C 67.2 °F /  19.6 °C 29.88in /  1011.7hPa WSW 1.0mph /  1.6km/h 9.0mph /  14.5km/h 63% 0.00in /  0mm
19:25 81.0 °F /  27.2 °C 67.2 °F /  19.6 °C 29.88in /  1011.7hPa WSW 1.0mph /  1.6km/h 9.0mph /  14.5km/h 63% 0.00in /  0mm
19:30 80.9 °F /  27.2 °C 66.7 °F /  19.3 °C 29.88in /  1011.7hPa WSW 2.0mph /  3.2km/h 7.0mph /  11.3km/h 62% 0.00in /  0mm
19:35 80.8 °F /  27.1 °C 66.6 °F /  19.2 °C 29.88in /  1011.7hPa WSW 1.0mph /  1.6km/h 7.0mph /  11.3km/h 62% 0.00in /  0mm
19:40 80.6 °F /  27 °C 66.4 °F /  19.1 °C 29.88in /  1011.7hPa WSW 2.0mph /  3.2km/h 8.0mph /  12.9km/h 62% 0.00in /  0mm
19:45 80.4 °F /  26.9 °C 66.2 °F /  19 °C 29.88in /  1011.7hPa West 1.0mph /  1.6km/h 9.0mph /  14.5km/h 62% 0.00in /  0mm
19:50 80.3 °F /  26.8 °C 65.6 °F /  18.7 °C 29.88in /  1011.7hPa West 3.0mph /  4.8km/h 9.0mph /  14.5km/h 61% 0.00in /  0mm
19:55 80.1 °F /  26.7 °C 65.5 °F /  18.6 °C 29.88in /  1011.7hPa WSW 2.0mph /  3.2km/h 9.0mph /  14.5km/h 61% 0.00in /  0mm
20:00 79.9 °F /  26.6 °C 65.3 °F /  18.5 °C 29.88in /  1011.7hPa WSW 1.0mph /  1.6km/h 9.0mph /  14.5km/h 61% 0.00in /  0mm
20:05 79.6 °F /  26.4 °C 65.5 °F /  18.6 °C 29.88in /  1011.7hPa WSW 1.0mph /  1.6km/h 8.0mph /  12.9km/h 62% 0.00in /  0mm
20:10 79.3 °F /  26.3 °C 65.2 °F /  18.4 °C 29.88in /  1011.7hPa WSW 1.0mph /  1.6km/h 8.0mph /  12.9km/h 62% 0.00in /  0mm
20:15 78.9 °F /  26.1 °C 65.3 °F /  18.5 °C 29.88in /  1011.7hPa SW 1.0mph /  1.6km/h 6.0mph /  9.7km/h 63% 0.00in /  0mm
20:20 78.6 °F /  25.9 °C 65.0 °F /  18.3 °C 29.87in /  1011.4hPa SW 1.0mph /  1.6km/h 6.0mph /  9.7km/h 63% 0.00in /  0mm
20:25 78.4 °F /  25.8 °C 65.2 °F /  18.4 °C 29.87in /  1011.4hPa Calm   6.0mph /  9.7km/h 64% 0.00in /  0mm
20:30 78.2 °F /  25.7 °C 65.0 °F /  18.3 °C 29.87in /  1011.4hPa WSW 2.0mph /  3.2km/h 8.0mph /  12.9km/h 64% 0.00in /  0mm
20:35 78.0 °F /  25.6 °C 64.9 °F /  18.3 °C 29.88in /  1011.7hPa SW 1.0mph /  1.6km/h 8.0mph /  12.9km/h 64% 0.00in /  0mm
20:45 77.3 °F /  25.2 °C 64.6 °F /  18.1 °C 29.88in /  1011.7hPa SW 1.0mph /  1.6km/h 7.0mph /  11.3km/h 65% 0.00in /  0mm
20:50 77.2 °F /  25.1 °C 64.5 °F /  18.1 °C 29.88in /  1011.7hPa WSW 1.0mph /  1.6km/h 7.0mph /  11.3km/h 65% 0.00in /  0mm
21:00 77.2 °F /  25.1 °C 64.5 °F /  18.1 °C 29.88in /  1011.7hPa SW 1.0mph /  1.6km/h 5.0mph /  8km/h 65% 0.00in /  0mm
21:05 77.3 °F /  25.2 °C 64.6 °F /  18.1 °C 29.88in /  1011.7hPa SW 2.0mph /  3.2km/h 9.0mph /  14.5km/h 65% 0.00in /  0mm
21:10 77.5 °F /  25.3 °C 64.4 °F /  18 °C 29.89in /  1012.1hPa SW 3.0mph /  4.8km/h 9.0mph /  14.5km/h 64% 0.00in /  0mm
21:15 78.0 °F /  25.6 °C 64.4 °F /  18 °C 29.89in /  1012.1hPa SW 1.0mph /  1.6km/h 10.0mph /  16.1km/h 63% 0.00in /  0mm
21:20 78.4 °F /  25.8 °C 64.3 °F /  17.9 °C 29.89in /  1012.1hPa SW 1.0mph /  1.6km/h 10.0mph /  16.1km/h 62% 0.00in /  0mm
21:25 78.6 °F /  25.9 °C 64.5 °F /  18.1 °C 29.90in /  1012.4hPa SW 1.0mph /  1.6km/h 8.0mph /  12.9km/h 62% 0.00in /  0mm
21:30 78.7 °F /  25.9 °C 63.2 °F /  17.3 °C 29.90in /  1012.4hPa WSW 3.0mph /  4.8km/h 7.0mph /  11.3km/h 59% 0.00in /  0mm
21:35 79.0 °F /  26.1 °C 63.5 °F /  17.5 °C 29.90in /  1012.4hPa West 5.0mph /  8km/h 11.0mph /  17.7km/h 59% 0.00in /  0mm
21:40 79.0 °F /  26.1 °C 63.5 °F /  17.5 °C 29.90in /  1012.4hPa SW 5.0mph /  8km/h 13.0mph /  20.9km/h 59% 0.00in /  0mm
21:45 78.9 °F /  26.1 °C 63.9 °F /  17.7 °C 29.90in /  1012.4hPa WSW 4.0mph /  6.4km/h 13.0mph /  20.9km/h 60% 0.00in /  0mm
21:55 79.0 °F /  26.1 °C 63.0 °F /  17.2 °C 29.91in /  1012.8hPa West 4.0mph /  6.4km/h 13.0mph /  20.9km/h 58% 0.00in /  0mm
22:00 79.4 °F /  26.3 °C 62.4 °F /  16.9 °C 29.92in /  1013.1hPa West 9.0mph /  14.5km/h 22.0mph /  35.4km/h 56% 0.00in /  0mm
22:05 79.9 °F /  26.6 °C 62.8 °F /  17.1 °C 29.92in /  1013.1hPa WNW 10.0mph /  16.1km/h 22.0mph /  35.4km/h 56% 0.00in /  0mm
22:10 80.0 °F /  26.7 °C 62.9 °F /  17.2 °C 29.92in /  1013.1hPa West 8.0mph /  12.9km/h 19.0mph /  30.6km/h 56% 0.00in /  0mm
22:15 79.7 °F /  26.5 °C 62.6 °F /  17 °C 29.92in /  1013.1hPa WNW 11.0mph /  17.7km/h 19.0mph /  30.6km/h 56% 0.00in /  0mm
22:20 79.3 °F /  26.3 °C 61.8 °F /  16.6 °C 29.92in /  1013.1hPa WNW 5.0mph /  8km/h 19.0mph /  30.6km/h 55% 0.00in /  0mm
22:25 78.7 °F /  25.9 °C 60.2 °F /  15.7 °C 29.92in /  1013.1hPa NW 11.0mph /  17.7km/h 18.0mph /  29km/h 53% 0.00in /  0mm
22:30 78.1 °F /  25.6 °C 60.6 °F /  15.9 °C 29.92in /  1013.1hPa WNW 7.0mph /  11.3km/h 18.0mph /  29km/h 55% 0.00in /  0mm
22:40 74.7 °F /  23.7 °C 62.6 °F /  17 °C 29.93in /  1013.4hPa WNW 8.0mph /  12.9km/h 21.0mph /  33.8km/h 66% 0.00in /  0mm
22:45 72.1 °F /  22.3 °C 62.2 °F /  16.8 °C 29.94in /  1013.8hPa WNW 12.0mph /  19.3km/h 23.0mph /  37km/h 71% 0.01in /  0.3mm
22:50 70.6 °F /  21.4 °C 62.3 °F /  16.8 °C 29.93in /  1013.4hPa WNW 2.0mph /  3.2km/h 23.0mph /  37km/h 75% 0.01in /  0.3mm
22:55 69.5 °F /  20.8 °C 62.3 °F /  16.8 °C 29.92in /  1013.1hPa West 1.0mph /  1.6km/h 13.0mph /  20.9km/h 78% 0.02in /  0.5mm
23:00 68.7 °F /  20.4 °C 62.3 °F /  16.8 °C 29.91in /  1012.8hPa SSW 5.0mph /  8km/h 9.0mph /  14.5km/h 80% 0.03in /  0.8mm
23:05 68.1 °F /  20.1 °C 62.4 °F /  16.9 °C 29.90in /  1012.4hPa SSW 3.0mph /  4.8km/h 8.0mph /  12.9km/h 82% 0.03in /  0.8mm
23:15 67.5 °F /  19.7 °C 62.5 °F /  16.9 °C 29.88in /  1011.7hPa SSW 2.0mph /  3.2km/h 8.0mph /  12.9km/h 84% 0.03in /  0.8mm
23:20 67.1 °F /  19.5 °C 62.8 °F /  17.1 °C 29.88in /  1011.7hPa SSW 4.0mph /  6.4km/h 9.0mph /  14.5km/h 86% 0.03in /  0.8mm
23:25 66.9 °F /  19.4 °C 62.6 °F /  17 °C 29.87in /  1011.4hPa SSW 5.0mph /  8km/h 11.0mph /  17.7km/h 86% 0.03in /  0.8mm
23:30 66.8 °F /  19.3 °C 62.5 °F /  16.9 °C 29.87in /  1011.4hPa SSW 3.0mph /  4.8km/h 11.0mph /  17.7km/h 86% 0.03in /  0.8mm
23:35 66.6 °F /  19.2 °C 62.6 °F /  17 °C 29.87in /  1011.4hPa SW 4.0mph /  6.4km/h 9.0mph /  14.5km/h 87% 0.03in /  0.8mm
23:40 66.4 °F /  19.1 °C 62.4 °F /  16.9 °C 29.87in /  1011.4hPa SW 1.0mph /  1.6km/h 8.0mph /  12.9km/h 87% 0.03in /  0.8mm
23:45 66.2 °F /  19 °C 62.2 °F /  16.8 °C 29.87in /  1011.4hPa SW 2.0mph /  3.2km/h 8.0mph /  12.9km/h 87% 0.03in /  0.8mm
23:50 66.1 °F /  18.9 °C 62.4 °F /  16.9 °C 29.86in /  1011.1hPa SSW 3.0mph /  4.8km/h 8.0mph /  12.9km/h 88% 0.03in /  0.8mm
23:55 66.0 °F /  18.9 °C 62.3 °F /  16.8 °C 29.86in /  1011.1hPa SW 3.0mph /  4.8km/h 12.0mph /  19.3km/h 88% 0.03in /  0.8mm
Westford Weather
Compliments of Weather Underground

 
 
Current Radar Loop:

Copyright © WestfordWeather.net 2007-2014. All rights reserved.